createdAt,value
2022-08-07T00:00:41.488Z,96656.66
2022-08-07T00:02:36.810Z,96660.22
2022-08-07T00:03:08.775Z,96670.72
2022-08-07T00:04:11.381Z,96661.44
2022-08-07T00:05:20.288Z,96656.41
2022-08-07T00:06:29.557Z,96653.81
2022-08-07T00:07:40.802Z,96659.50
2022-08-07T00:08:44.405Z,96663.88
2022-08-07T00:09:59.189Z,96659.09
2022-08-07T00:11:13.918Z,96669.53
2022-08-07T00:12:22.186Z,96666.72
2022-08-07T00:13:30.600Z,96663.53
2022-08-07T00:14:35.438Z,96665.25
2022-08-07T00:15:46.789Z,96673.97
2022-08-07T00:16:53.269Z,96669.34
2022-08-07T00:17:57.926Z,96673.91
2022-08-07T00:19:05.611Z,96673.16
2022-08-07T00:20:09.163Z,96666.53
2022-08-07T00:21:57.361Z,96664.84
2022-08-07T00:22:51.755Z,96662.16
2022-08-07T00:23:56.598Z,96665.69
2022-08-07T00:24:58.788Z,96668.41
2022-08-07T00:26:18.867Z,96659.38
2022-08-07T00:27:29.135Z,96662.16
2022-08-07T00:28:56.789Z,96660.09
2022-08-07T00:29:59.275Z,96654.16
2022-08-07T00:31:06.279Z,96655.06
2022-08-07T00:32:14.976Z,96657.50
2022-08-07T00:33:20.182Z,96654.75
2022-08-07T00:34:22.257Z,96654.16
2022-08-07T00:35:30.736Z,96653.22
2022-08-07T00:36:35.423Z,96658.38
2022-08-07T00:37:48.132Z,96653.97
2022-08-07T00:38:55.685Z,96661.47
2022-08-07T00:39:59.913Z,96663.53
2022-08-07T00:41:05.138Z,96662.97
2022-08-07T00:42:12.241Z,96658.94
2022-08-07T00:44:00.229Z,96662.13
2022-08-07T00:44:42.105Z,96663.97
2022-08-07T00:45:46.616Z,96654.44
2022-08-07T00:46:51.550Z,96661.78
2022-08-07T00:48:07.730Z,96665.22
2022-08-07T00:49:24.959Z,96659.34
2022-08-07T00:50:50.694Z,96668.59
2022-08-07T00:51:58.448Z,96673.22
2022-08-07T00:53:01.037Z,96663.81
2022-08-07T00:54:08.985Z,96672.81
2022-08-07T00:55:17.236Z,96668.44
2022-08-07T00:56:33.799Z,96668.53
2022-08-07T00:57:36.664Z,96669.44
2022-08-07T00:58:46.973Z,96673.34
2022-08-07T00:59:52.050Z,96672.66
2022-08-07T01:00:56.834Z,96673.94
2022-08-07T01:01:59.259Z,96669.63
2022-08-07T01:03:04.136Z,96667.28
2022-08-07T01:04:11.433Z,96669.63
2022-08-07T01:05:27.805Z,96668.72
2022-08-07T01:06:34.548Z,96673.84
2022-08-07T01:07:38.019Z,96674.84
2022-08-07T01:08:52.094Z,96670.38
2022-08-07T01:10:06.668Z,96676.72
2022-08-07T01:12:24.113Z,96675.38
2022-08-07T01:12:43.963Z,96670.50
2022-08-07T01:13:59.452Z,96673.88
2022-08-07T01:15:03.927Z,96668.06
2022-08-07T01:16:10.186Z,96665.44
2022-08-07T01:17:13.558Z,96670.84
2022-08-07T01:18:18.819Z,96666.88
2022-08-07T01:19:22.878Z,96669.66
2022-08-07T01:20:34.512Z,96671.41
2022-08-07T01:21:49.326Z,96668.16
2022-08-07T01:23:12.276Z,96669.88
2022-08-07T01:24:21.247Z,96666.44
2022-08-07T01:25:53.830Z,96669.16
2022-08-07T01:26:53.793Z,96659.56
2022-08-07T01:27:56.730Z,96655.34
2022-08-07T01:29:04.904Z,96654.59
2022-08-07T01:30:09.519Z,96664.13
2022-08-07T01:31:17.919Z,96651.16
2022-08-07T01:32:22.473Z,96651.31
2022-08-07T01:33:30.184Z,96656.72
2022-08-07T01:34:53.630Z,96656.03
2022-08-07T01:36:05.917Z,96656.44
2022-08-07T01:37:17.368Z,96653.75
2022-08-07T01:38:24.926Z,96655.69
2022-08-07T01:39:40.403Z,96657.34
2022-08-07T01:40:44.439Z,96654.16
2022-08-07T01:42:07.220Z,96656.00
2022-08-07T01:43:18.856Z,96649.78
2022-08-07T01:44:21.546Z,96654.00
2022-08-07T01:45:37.303Z,96652.13
2022-08-07T01:46:42.491Z,96655.69
2022-08-07T01:48:19.636Z,96659.38
2022-08-07T01:49:13.963Z,96650.63
2022-08-07T01:50:22.832Z,96653.47
2022-08-07T01:52:02.542Z,96655.06
2022-08-07T01:53:08.681Z,96648.53
2022-08-07T01:54:32.582Z,96650.97
2022-08-07T01:55:42.368Z,96660.28
2022-08-07T01:56:49.740Z,96654.00
2022-08-07T01:58:05.832Z,96654.66
2022-08-07T01:59:30.804Z,96653.84
2022-08-07T02:00:45.390Z,96654.00
2022-08-07T02:02:02.779Z,96648.63
2022-08-07T02:03:21.177Z,96648.78
2022-08-07T02:04:32.667Z,96648.97
2022-08-07T02:05:43.241Z,96647.09
2022-08-07T02:06:52.157Z,96645.00
2022-08-07T02:08:00.565Z,96645.16
2022-08-07T02:09:11.650Z,96647.81
2022-08-07T02:10:36.535Z,96644.38
2022-08-07T02:12:02.624Z,96636.41
2022-08-07T02:13:09.231Z,96641.38
2022-08-07T02:14:14.563Z,96638.59
2022-08-07T02:15:40.386Z,96640.72
2022-08-07T02:16:43.117Z,96640.03
2022-08-07T02:17:51.852Z,96633.63
2022-08-07T02:18:56.143Z,96634.50
2022-08-07T02:20:09.939Z,96632.63
2022-08-07T02:21:25.254Z,96633.63
2022-08-07T02:22:30.293Z,96636.50
2022-08-07T02:23:37.841Z,96633.97
2022-08-07T02:24:44.976Z,96634.19
2022-08-07T02:26:31.508Z,96632.31
2022-08-07T02:27:14.176Z,96626.47
2022-08-07T02:28:25.360Z,96631.75
2022-08-07T02:29:30.721Z,96633.34
2022-08-07T02:30:38.328Z,96628.13
2022-08-07T02:31:41.358Z,96634.13
2022-08-07T02:33:07.273Z,96639.34
2022-08-07T02:34:11.613Z,96632.59
2022-08-07T02:36:28.274Z,96636.09
2022-08-07T02:36:46.177Z,96631.22
2022-08-07T02:37:52.483Z,96635.59
2022-08-07T02:38:57.273Z,96635.53
2022-08-07T02:40:30.165Z,96637.09
2022-08-07T02:41:33.370Z,96636.44
2022-08-07T02:42:42.877Z,96631.41
2022-08-07T02:43:48.926Z,96633.41
2022-08-07T02:44:55.536Z,96631.19
